Terminal Aerodrome Forecast
Issued by NWS Mt. Holly, NJ

Home | Current Version | Previous Version | Text Only | Print | Product List | Glossary On
Versions: 1 2 3 4 5 6 7 8 9 10 11 12 13 14 15 16 17 18 19 20 21
000
FTUS41 KPHI 211830 AAA
TAFRDG
TAF AMD
KRDG 211830Z 2119/2218 21006KT P6SM SCT030 BKN250
      TEMPO 2122/2201 4SM -TSRA BKN050CB
     FM220200 VRB03KT P6SM SCT025
     FM220600 VRB03KT 4SM BR BKN007
     FM221300 VRB03KT P6SM BKN012
     FM221500 20007KT P6SM SCT015 SCT050 BKN250=

USA.gov is the U.S. government's official web portal to all federal, state and local government web resources and services.